This is the latest recevied weather packets stored in our database for station/object EB1TR-13. If no packets are shown the sender has not sent any weather packets the latest 10 day(s).
| Time | Temp. | Humidity | Pressure | Rain* | Wind** | Luminosity | Snow |
|---|---|---|---|---|---|---|---|
| 1787935388 | 23.89° C | 68% | 1018 hPa | 0 mm | - | 0 W/m² | - |
| 1787934489 | 25° C | 64% | 1018 hPa | 0 mm | - | 0 W/m² | - |
| 1787933589 | 25° C | 62% | 1018 hPa | 0 mm | - | 0 W/m² | - |
| 1787932689 | 24.44° C | 62% | 1018 hPa | 0 mm | - | 0 W/m² | - |
| 1787931789 | 24.44° C | 63% | 1018 hPa | 0 mm | - | 0 W/m² | - |
| 1787930888 | 23.89° C | 64% | 1019 hPa | 0 mm | - | 0 W/m² | - |
| 1787929988 | 23.33° C | 65% | 1018 hPa | 0 mm | - | 0 W/m² | - |
| 1787929088 | 23.33° C | 66% | 1018 hPa | 0 mm | - | 0 W/m² | - |
| 1787928189 | 23.33° C | 67% | 1018 hPa | 0 mm | - | 0 W/m² | - |
| 1787927288 | 22.78° C | 70% | 1018 hPa | 0 mm | - | 0 W/m² | - |
| 1787926388 | 22.78° C | 70% | 1018 hPa | 0 mm | - | 0 W/m² | - |
| 1787925498 | 22.78° C | 71% | 1018 hPa | 0 mm | - | 0 W/m² | - |
| 1787924588 | 23.33° C | 68% | 1018 hPa | 0 mm | - | 0 W/m² | - |
| 1787923688 | 23.89° C | 65% | 1018 hPa | 0 mm | - | 0 W/m² | - |
| 1787922788 | 24.44° C | 59% | 1018 hPa | 0 mm | - | 0 W/m² | - |
| 1787921888 | 24.44° C | 60% | 1018 hPa | 0 mm | - | 0 W/m² | - |
| 1787920988 | 23.89° C | 62% | 1018 hPa | 0 mm | - | 0 W/m² | - |
| 1787920089 | 23.89° C | 63% | 1018 hPa | 0 mm | - | 0 W/m² | - |
| 1787919188 | 23.33° C | 64% | 1018 hPa | 0 mm | - | 0 W/m² | - |
| 1787918288 | 22.78° C | 67% | 1017 hPa | 0 mm | - | 0 W/m² | - |
| 1787917388 | 21.67° C | 70% | 1017 hPa | 0 mm | - | 0 W/m² | - |
| 1787916488 | 21.11° C | 71% | 1017 hPa | 0 mm | - | 0 W/m² | - |
| 1787915588 | 20.56° C | 70% | 1017 hPa | 0 mm | - | 0 W/m² | - |
| 1787914688 | 20.56° C | 70% | 1017 hPa | 0 mm | - | 0 W/m² | - |
| 1787913788 | 19.44° C | 75% | 1017 hPa | 0 mm | - | 0 W/m² | - |
* Rain latest hour (hover to see other rain measurements)
** Current wind speed in m/s (hover to see current wind gust speed)